Time;durP1;ratioP1;P1;durP2;ratioP2;P2;SDS_P1;SDS_P2;PMS_P1;PMS_P2;Temp;Humidity;BMP_temperature;BMP_pressure;BME280_temperature;BME280_humidity;BME280_pressure;Samples;Min_cycle;Max_cycle;Signal;HPM_P1;HPM_P2
2022/04/21 00:01:41;;;;;;;0.43;0.43;;;12.70;99.90;13.50;101280.00;;;;5054016;28;20664;-68
2022/04/21 00:04:06;;;;;;;0.40;0.40;;;12.90;99.90;13.20;101216.00;;;;5055368;28;20180;-68
2022/04/21 00:06:35;;;;;;;0.40;0.40;;;12.90;99.90;13.20;101234.00;;;;5054119;28;20198;-68
2022/04/21 00:09:00;;;;;;;0.50;0.50;;;12.90;99.90;13.00;101262.00;;;;5055504;28;20728;-69
2022/04/21 00:11:26;;;;;;;0.47;0.47;;;12.80;99.90;13.30;101256.00;;;;5054369;28;20203;-67
2022/04/21 00:13:52;;;;;;;0.77;0.77;;;12.90;99.90;13.30;101224.00;;;;5036873;28;20190;-68
2022/04/21 00:16:20;;;;;;;0.77;0.70;;;12.90;99.90;13.00;101232.00;;;;5055630;28;20193;-68
2022/04/21 00:18:48;;;;;;;0.27;0.27;;;12.80;99.90;12.90;101251.00;;;;5053983;28;20270;-68
2022/04/21 00:21:14;;;;;;;0.17;0.17;;;12.70;99.90;12.90;101247.00;;;;5053432;28;20261;-68
2022/04/21 00:23:39;;;;;;;0.40;0.40;;;12.70;99.90;13.20;101250.00;;;;5053989;28;20278;-68
2022/04/21 00:26:05;;;;;;;0.20;0.20;;;12.80;99.90;12.90;101260.00;;;;5037517;28;20179;-68
2022/04/21 00:28:34;;;;;;;0.40;0.40;;;12.70;99.90;12.90;101258.00;;;;5053934;28;20188;-68
2022/04/21 00:31:00;;;;;;;0.27;0.27;;;12.60;99.90;12.90;101207.00;;;;5054361;28;20194;-68
2022/04/21 00:33:26;;;;;;;0.63;0.63;;;12.50;99.90;13.20;101254.00;;;;5037021;28;20693;-68
2022/04/21 00:35:52;;;;;;;0.43;0.43;;;12.70;99.90;12.90;101237.00;;;;5037018;28;20276;-68
2022/04/21 00:38:20;;;;;;;0.30;0.30;;;12.70;99.90;13.20;101245.00;;;;5053591;28;20183;-68
2022/04/21 00:40:49;;;;;;;0.93;0.90;;;12.70;99.90;13.50;101205.00;;;;5053750;28;20180;-68
2022/04/21 00:43:15;;;;;;;0.20;0.20;;;12.90;99.90;13.00;101243.00;;;;5053987;28;20170;-68
2022/04/21 00:45:41;;;;;;;0.20;0.20;;;12.80;99.90;12.90;101245.00;;;;5053700;28;20186;-68
2022/04/21 00:48:07;;;;;;;0.37;0.37;;;12.70;99.90;13.00;101212.00;;;;5052849;28;20247;-68
2022/04/21 00:50:37;;;;;;;0.20;0.20;;;12.70;99.90;13.10;101241.00;;;;5036619;28;20193;-68
2022/04/21 00:53:04;;;;;;;0.20;0.20;;;12.60;99.90;12.90;101234.00;;;;5053479;28;20209;-68
2022/04/21 00:55:31;;;;;;;0.30;0.30;;;12.60;99.90;12.70;101232.00;;;;5034620;28;20228;-69
2022/04/21 00:58:01;;;;;;;0.30;0.30;;;12.50;99.90;13.00;101244.00;;;;5053055;28;20740;-68
2022/04/21 01:00:30;;;;;;;0.83;0.80;;;12.50;99.90;12.90;101238.00;;;;5053702;28;20162;-68
2022/04/21 01:02:58;;;;;;;0.20;0.20;;;12.50;99.90;13.00;101201.00;;;;5054281;28;20190;-68
2022/04/21 01:05:30;;;;;;;0.30;0.30;;;12.50;99.90;13.10;101232.00;;;;5037064;28;20182;-68
2022/04/21 01:08:05;;;;;;;0.20;0.20;;;12.60;99.90;12.60;101201.00;;;;5053246;28;20185;-68
2022/04/21 01:10:37;;;;;;;0.53;0.53;;;12.50;99.90;12.50;101226.00;;;;5053208;28;20170;-68
2022/04/21 01:13:06;;;;;;;0.63;0.63;;;12.40;99.90;12.70;101229.00;;;;5034606;28;20213;-67
2022/04/21 01:15:32;;;;;;;0.50;0.50;;;12.30;99.90;12.70;101230.00;;;;5035832;28;20185;-67
2022/04/21 01:18:01;;;;;;;0.20;0.20;;;12.30;99.90;12.70;101226.00;;;;5036143;28;20550;-68
2022/04/21 01:20:27;;;;;;;0.20;0.20;;;12.30;99.90;12.50;101229.00;;;;5054374;28;20188;-67
2022/04/21 01:22:54;;;;;;;0.20;0.20;;;12.20;99.90;12.40;101229.00;;;;5035269;28;20245;-68
2022/04/21 01:25:21;;;;;;;0.30;0.30;;;12.10;99.90;12.20;101223.00;;;;5052957;28;20609;-68
2022/04/21 01:27:49;;;;;;;0.40;0.40;;;12.00;99.90;12.60;101237.00;;;;5035425;28;20181;-67
2022/04/21 01:30:19;;;;;;;0.57;0.57;;;12.10;99.90;12.60;101225.00;;;;5051636;28;20174;-68
2022/04/21 01:32:49;;;;;;;0.30;0.30;;;12.20;99.90;12.50;101224.00;;;;5033949;28;20218;-68
2022/04/21 01:35:15;;;;;;;0.40;0.40;;;12.20;99.90;12.00;101214.00;;;;5052801;28;20214;-68
2022/04/21 01:43:12;;;;;;;0.20;0.20;;;11.80;99.90;12.10;101211.00;;;;5051739;28;20188;-68
2022/04/21 01:45:38;;;;;;;0.20;0.20;;;11.80;99.90;11.80;101188.00;;;;5035836;28;20540;-68
2022/04/21 01:48:05;;;;;;;1.30;1.30;;;11.80;99.90;11.80;101206.00;;;;5053099;28;20177;-68
2022/04/21 01:50:31;;;;;;;0.30;0.30;;;11.80;99.90;12.30;101215.00;;;;5053100;28;20162;-68
2022/04/21 01:52:59;;;;;;;0.20;0.20;;;11.90;99.90;11.80;101205.00;;;;5051511;28;20353;-68
2022/04/21 01:55:26;;;;;;;0.40;0.40;;;11.80;99.90;11.80;101179.00;;;;5051728;28;20166;-68
2022/04/21 01:57:52;;;;;;;0.30;0.30;;;11.80;99.90;11.10;101181.00;;;;5052586;28;20219;-69
2022/04/21 02:00:30;;;;;;;0.20;0.20;;;11.60;99.90;11.60;101176.00;;;;5052149;28;20178;-68
2022/04/21 02:02:56;;;;;;;0.30;0.30;;;11.40;99.90;11.60;101177.00;;;;5035731;28;20211;-68
2022/04/21 02:05:22;;;;;;;0.50;0.50;;;11.50;99.90;11.40;101172.00;;;;5034948;28;20213;-68
2022/04/21 02:07:48;;;;;;;0.30;0.30;;;11.40;99.90;11.10;101168.00;;;;5052117;28;20237;-68
2022/04/21 02:10:17;;;;;;;0.23;0.23;;;11.30;99.90;12.10;101169.00;;;;5035715;28;20189;-68
2022/04/21 02:12:45;;;;;;;0.20;0.20;;;11.50;99.90;11.50;101181.00;;;;5035606;28;20213;-68
2022/04/21 02:15:12;;;;;;;0.30;0.30;;;11.50;99.90;11.90;101164.00;;;;5035221;28;20224;-68
2022/04/21 02:17:39;;;;;;;0.40;0.40;;;11.70;99.90;11.60;101129.00;;;;5035421;28;20187;-68
2022/04/21 02:20:10;;;;;;;0.20;0.20;;;11.60;99.90;11.90;101183.00;;;;5035240;28;20280;-68
2022/04/21 02:22:36;;;;;;;0.20;0.20;;;11.60;99.90;12.10;101176.00;;;;5052455;28;20187;-68
2022/04/21 02:25:08;;;;;;;0.83;0.83;;;11.60;99.90;11.50;101170.00;;;;5052621;28;20165;-68
2022/04/21 02:27:41;;;;;;;0.30;0.30;;;11.50;99.90;11.20;101152.00;;;;5034660;28;20174;-69
2022/04/21 02:30:09;;;;;;;0.70;0.70;;;11.30;99.90;11.30;101103.00;;;;5051645;28;20170;-68
2022/04/21 02:32:36;;;;;;;0.20;0.20;;;11.30;99.90;11.60;101152.00;;;;5035051;28;20230;-68
2022/04/21 02:35:04;;;;;;;0.70;0.70;;;11.30;99.90;11.50;101164.00;;;;5035259;28;20579;-68
2022/04/21 02:37:41;;;;;;;0.70;0.70;;;11.30;99.90;11.70;101158.00;;;;5035344;28;20209;-68
2022/04/21 02:40:09;;;;;;;0.30;0.30;;;11.40;99.90;11.70;101161.00;;;;5051729;28;20185;-69
2022/04/21 02:42:38;;;;;;;0.20;0.20;;;11.40;99.90;11.60;101107.00;;;;5035617;28;20183;-69
2022/04/21 02:45:12;;;;;;;0.30;0.30;;;11.40;99.90;11.70;101152.00;;;;5051361;28;20233;-68
2022/04/21 02:47:43;;;;;;;0.20;0.20;;;11.40;99.90;11.50;101121.00;;;;5052063;28;20188;-69
2022/04/21 02:50:12;;;;;;;2.53;1.20;;;11.30;99.90;11.10;101137.00;;;;5051701;28;20256;-68
2022/04/21 02:52:40;;;;;;;0.60;0.60;;;11.20;99.90;11.20;101140.00;;;;5052881;28;20206;-68
2022/04/21 02:57:53;;;;;;;0.60;0.60;;;11.10;99.90;11.10;101138.00;;;;5051963;28;20195;-68
2022/04/21 03:00:21;;;;;;;0.40;0.40;;;11.10;99.90;11.20;101135.00;;;;5051423;28;20202;-68
2022/04/21 03:02:47;;;;;;;2.00;1.90;;;11.10;99.90;11.30;101142.00;;;;5034921;28;20277;-69
2022/04/21 03:05:13;;;;;;;0.20;0.20;;;11.10;99.90;11.30;101103.00;;;;5033946;28;20215;-68
2022/04/21 03:07:39;;;;;;;0.40;0.40;;;11.10;99.90;11.20;101127.00;;;;5051495;28;20186;-68
2022/04/21 03:10:06;;;;;;;0.20;0.20;;;11.00;99.90;11.00;101119.00;;;;5051750;28;20167;-68
2022/04/21 03:12:31;;;;;;;0.20;0.20;;;11.00;99.90;10.90;101138.00;;;;5034847;28;20206;-69
2022/04/21 03:14:57;;;;;;;0.33;0.33;;;10.90;99.90;11.10;101093.00;;;;5034874;28;20676;-68
2022/04/21 03:17:24;;;;;;;1.23;1.23;;;11.00;99.90;10.70;101130.00;;;;5051296;28;20210;-68
2022/04/21 03:19:51;;;;;;;0.30;0.30;;;10.90;99.90;10.30;101112.00;;;;5055037;28;20186;-68
2022/04/21 03:25:06;;;;;;;0.70;0.70;;;10.70;99.90;10.40;101105.00;;;;5054796;28;20248;-69
2022/04/21 03:27:33;;;;;;;1.33;1.23;;;10.70;99.90;10.50;101100.00;;;;5038407;28;20178;-69
2022/04/21 03:30:06;;;;;;;0.37;0.37;;;10.50;99.90;10.60;101111.00;;;;5055698;28;20223;-69
2022/04/21 03:32:32;;;;;;;0.30;0.30;;;10.50;99.90;10.80;101129.00;;;;5037961;28;20218;-69
2022/04/21 03:35:00;;;;;;;0.37;0.37;;;10.70;99.90;10.70;101123.00;;;;5054866;28;20186;-69
2022/04/21 03:37:29;;;;;;;0.20;0.20;;;10.70;99.90;10.60;101114.00;;;;5055475;28;20175;-68
2022/04/21 03:39:57;;;;;;;1.23;1.17;;;10.60;99.90;11.00;101089.00;;;;5055347;28;20170;-69
2022/04/21 03:42:27;;;;;;;0.30;0.30;;;10.70;99.90;10.50;101126.00;;;;5054294;28;20189;-69
2022/04/21 03:44:54;;;;;;;0.40;0.40;;;10.60;99.90;10.30;101121.00;;;;5054818;28;20167;-69
2022/04/21 03:47:23;;;;;;;0.40;0.40;;;10.60;99.90;10.60;101118.00;;;;5037935;28;20629;-69
2022/04/21 03:49:50;;;;;;;0.30;0.30;;;10.60;99.90;10.50;101127.00;;;;5038471;28;20179;-69
2022/04/21 03:52:17;;;;;;;0.83;0.83;;;10.50;99.90;10.40;101109.00;;;;5038017;28;20977;-68
2022/04/21 03:54:43;;;;;;;0.40;0.40;;;10.40;99.90;10.20;101106.00;;;;5053983;28;20289;-68
2022/04/21 03:57:12;;;;;;;1.33;0.67;;;10.40;99.90;10.20;101114.00;;;;5054265;28;20261;-68
2022/04/21 03:59:43;;;;;;;0.47;0.47;;;10.40;99.90;10.60;101119.00;;;;5038597;28;20208;-68
2022/04/21 04:02:09;;;;;;;0.97;0.97;;;10.50;99.90;10.40;101109.00;;;;5053786;28;20193;-68
2022/04/21 04:04:37;;;;;;;0.43;0.43;;;10.60;99.90;10.30;101100.00;;;;5038102;28;20179;-68
2022/04/21 04:12:35;;;;;;;0.80;0.80;;;10.50;99.90;10.40;101065.00;;;;5054326;28;20209;-68
2022/04/21 04:15:04;;;;;;;1.23;1.23;;;10.50;99.90;10.40;101089.00;;;;5054799;28;20174;-68
2022/04/21 04:17:30;;;;;;;1.43;1.33;;;10.40;99.90;10.40;101095.00;;;;5036838;28;20281;-68
2022/04/21 04:19:56;;;;;;;2.40;2.30;;;10.50;99.90;10.60;101093.00;;;;5037638;28;20276;-67
2022/04/21 04:22:22;;;;;;;0.93;0.73;;;10.60;99.90;10.70;101050.00;;;;5051226;28;20186;-68
2022/04/21 04:24:53;;;;;;;1.17;1.07;;;10.60;99.90;10.90;101095.00;;;;5037851;28;20206;-68
2022/04/21 04:27:23;;;;;;;0.20;0.20;;;10.80;99.90;10.20;101091.00;;;;5052477;28;20178;-68
2022/04/21 04:29:49;;;;;;;0.40;0.40;;;10.60;99.90;10.60;101087.00;;;;5037408;28;20187;-68
2022/04/21 04:32:18;;;;;;;1.23;1.13;;;10.60;99.90;10.90;101100.00;;;;5036953;28;20237;-68
2022/04/21 04:34:44;;;;;;;0.57;0.57;;;10.70;99.90;10.30;101106.00;;;;5054182;28;20194;-68
2022/04/21 04:37:10;;;;;;;0.43;0.43;;;10.60;99.90;10.50;101073.00;;;;5052866;28;20178;-68
2022/04/21 04:39:36;;;;;;;0.30;0.30;;;10.50;99.90;10.70;101113.00;;;;5044372;28;20653;-69
2022/04/21 04:42:18;;;;;;;0.43;0.43;;;10.60;99.90;10.50;101113.00;;;;5050305;28;20210;-68
2022/04/21 04:44:45;;;;;;;0.50;0.50;;;10.60;99.90;10.50;101107.00;;;;5049813;28;20270;-68
2022/04/21 04:47:10;;;;;;;0.50;0.50;;;10.50;99.90;9.90;101090.00;;;;5033688;28;20519;-68
2022/04/21 04:49:37;;;;;;;0.40;0.40;;;10.40;99.90;10.00;101104.00;;;;5050540;28;20190;-68
2022/04/21 04:52:03;;;;;;;0.60;0.60;;;10.20;99.90;10.10;101104.00;;;;5048814;28;20424;-68
2022/04/21 04:54:29;;;;;;;0.40;0.40;;;10.20;99.90;10.30;101100.00;;;;5049695;28;20265;-68
2022/04/21 04:56:58;;;;;;;0.40;0.40;;;10.30;99.90;10.10;101096.00;;;;5049602;28;20768;-68
2022/04/21 04:59:26;;;;;;;0.90;0.90;;;10.30;99.90;10.30;101056.00;;;;5053337;28;20633;-68
2022/04/21 05:01:52;;;;;;;0.30;0.30;;;10.30;99.90;10.40;101099.00;;;;5052163;28;20190;-69
2022/04/21 05:04:20;;;;;;;0.30;0.30;;;10.40;99.90;10.40;101056.00;;;;5035800;28;20704;-68
2022/04/21 05:06:51;;;;;;;0.93;0.93;;;10.50;99.90;9.70;101090.00;;;;5053270;28;20231;-68
2022/04/21 05:09:21;;;;;;;0.33;0.33;;;10.20;99.90;10.10;101096.00;;;;5053048;28;20266;-68
2022/04/21 05:11:53;;;;;;;0.37;0.37;;;10.20;99.90;10.30;101104.00;;;;5035293;28;20563;-68
2022/04/21 05:14:23;;;;;;;0.30;0.30;;;10.40;99.90;10.80;101125.00;;;;5035877;28;20232;-68
2022/04/21 05:16:50;;;;;;;0.60;0.60;;;10.70;99.90;10.80;101121.00;;;;5036616;28;20189;-69
2022/04/21 05:19:19;;;;;;;0.40;0.40;;;10.80;99.90;11.20;101126.00;;;;5051768;28;20174;-69
2022/04/21 05:21:46;;;;;;;0.40;0.40;;;11.00;99.90;11.10;101085.00;;;;5052910;28;20179;-68
2022/04/21 05:24:13;;;;;;;0.40;0.40;;;11.20;99.90;11.60;101124.00;;;;5052078;28;20180;-68
2022/04/21 05:26:41;;;;;;;1.43;1.10;;;11.40;99.90;12.60;101152.00;;;;5053012;28;20257;-68
2022/04/21 05:32:01;;;;;;;0.40;0.40;;;12.30;99.90;13.30;101174.00;;;;5051726;28;20331;-70
2022/04/21 05:34:29;;;;;;;0.20;0.20;;;12.90;99.90;13.30;101192.00;;;;5035677;28;20183;-68
2022/04/21 05:36:56;;;;;;;3.47;1.63;;;13.00;99.90;14.00;101193.00;;;;5035515;28;20670;-68
2022/04/21 05:39:23;;;;;;;0.70;0.70;;;13.50;99.90;14.40;101170.00;;;;5034689;28;20655;-70
2022/04/21 05:41:52;;;;;;;0.30;0.30;;;13.80;99.90;15.30;101224.00;;;;5035204;28;20201;-68
2022/04/21 05:44:18;;;;;;;0.20;0.20;;;14.50;99.90;15.60;101195.00;;;;5035531;28;20664;-68
2022/04/21 05:46:45;;;;;;;0.57;0.57;;;14.80;99.90;15.90;101256.00;;;;5051628;28;20180;-69
2022/04/21 05:49:12;;;;;;;0.90;0.83;;;15.20;99.90;16.10;101257.00;;;;5052562;28;20186;-69
2022/04/21 05:51:38;;;;;;;2.23;2.13;;;15.50;99.90;15.40;101273.00;;;;5052167;28;20215;-69
2022/04/21 05:54:06;;;;;;;0.47;0.47;;;15.70;99.90;17.00;101278.00;;;;5035934;28;20271;-70
2022/04/21 05:56:33;;;;;;;0.60;0.60;;;16.00;99.90;17.90;101251.00;;;;5035153;28;20273;-70
2022/04/21 05:58:59;;;;;;;0.87;0.87;;;16.70;99.90;17.20;101287.00;;;;5051800;28;20183;-69
2022/04/21 06:01:25;;;;;;;0.77;0.77;;;16.60;99.90;17.50;101299.00;;;;5035332;28;20263;-70
2022/04/21 06:03:54;;;;;;;0.20;0.20;;;16.90;99.90;17.60;101298.00;;;;5051696;28;20177;-70
2022/04/21 06:06:20;;;;;;;0.53;0.40;;;16.80;99.90;17.20;101262.00;;;;5051937;28;20187;-70
2022/04/21 06:08:50;;;;;;;0.33;0.33;;;16.70;99.90;17.10;101301.00;;;;5035200;28;20245;-69
2022/04/21 06:11:16;;;;;;;1.17;1.07;;;17.00;99.90;16.90;101297.00;;;;5051934;28;20175;-68
2022/04/21 06:13:42;;;;;;;1.02;0.70;;;16.90;99.90;17.30;101309.00;;;;5035762;28;20199;-67
2022/04/21 06:16:09;;;;;;;0.60;0.60;;;17.00;99.90;17.60;101312.00;;;;5051525;28;20187;-68
2022/04/21 06:18:36;;;;;;;1.45;1.17;;;16.90;99.90;16.70;101314.00;;;;5051933;28;20184;-68
2022/04/21 06:21:09;;;;;;;0.25;0.25;;;17.00;99.90;17.60;101314.00;;;;5051624;28;20577;-68
2022/04/21 06:23:35;;;;;;;1.25;1.13;;;16.80;99.90;17.70;101310.00;;;;5051726;28;20202;-68
2022/04/21 06:26:03;;;;;;;1.80;1.15;;;17.10;99.90;15.90;101288.00;;;;5035339;28;20188;-67
2022/04/21 06:28:29;;;;;;;2.37;1.10;;;16.60;99.90;16.50;101274.00;;;;5051356;28;20181;-68
2022/04/21 06:30:56;;;;;;;0.50;0.50;;;16.40;99.90;17.50;101264.00;;;;5034702;28;20184;-68
2022/04/21 06:33:22;;;;;;;0.10;0.10;;;16.70;99.90;18.60;101261.00;;;;5050820;28;20216;-68
2022/04/21 06:35:48;;;;;;;0.17;0.17;;;17.70;99.90;18.30;101286.00;;;;5034942;28;20178;-68
2022/04/21 06:38:14;;;;;;;1.83;1.23;;;17.80;99.90;18.30;101241.00;;;;5050686;28;20169;-69
2022/04/21 06:40:40;;;;;;;0.60;0.60;;;18.20;99.90;18.40;101214.00;;;;5052359;28;20221;-68
2022/04/21 06:48:42;;;;;;;0.22;0.22;;;16.30;99.90;17.60;101215.00;;;;5052035;28;20200;-68
2022/04/21 06:51:08;;;;;;;1.10;1.10;;;16.90;99.90;16.70;101224.00;;;;5051481;28;20257;-67
2022/04/21 06:53:34;;;;;;;0.75;0.75;;;16.90;99.90;17.70;101222.00;;;;5052788;28;20189;-67
2022/04/21 06:56:01;;;;;;;1.73;1.48;;;17.30;99.90;17.80;101182.00;;;;5056910;28;20177;-68
2022/04/21 06:58:32;;;;;;;1.30;0.93;;;17.40;99.90;17.30;101229.00;;;;5039363;28;20183;-68
2022/04/21 07:01:04;;;;;;;0.47;0.30;;;17.10;99.90;17.10;101225.00;;;;5055478;28;20656;-68
2022/04/21 07:03:35;;;;;;;0.38;0.38;;;17.00;99.90;18.00;101220.00;;;;5056810;28;20192;-69
2022/04/21 07:06:04;;;;;;;0.68;0.68;;;17.60;99.90;18.50;101169.00;;;;5055647;28;20636;-69
2022/04/21 07:08:34;;;;;;;2.10;1.90;;;17.80;99.90;17.30;101217.00;;;;5039152;28;20229;-68
2022/04/21 07:11:08;;;;;;;0.40;0.40;;;17.80;99.90;18.70;101217.00;;;;5055366;28;20255;-68
2022/04/21 07:13:39;;;;;;;1.60;1.58;;;18.00;99.90;18.00;101220.00;;;;5056898;28;20182;-70
2022/04/21 07:16:07;;;;;;;1.02;0.93;;;18.10;99.90;18.40;101221.00;;;;5055260;28;20182;-68
2022/04/21 07:18:33;;;;;;;0.17;0.17;;;18.20;99.90;18.20;101229.00;;;;5036083;28;20244;-68
2022/04/21 07:21:09;;;;;;;0.40;0.32;;;18.30;99.90;18.80;101229.00;;;;5054488;28;20185;-68
2022/04/21 07:23:39;;;;;;;0.70;0.70;;;18.80;99.90;18.30;101226.00;;;;5051322;28;20191;-69
2022/04/21 07:26:12;;;;;;;1.58;1.48;;;18.50;99.90;18.10;101230.00;;;;5051673;28;20186;-69
2022/04/21 07:28:44;;;;;;;0.93;0.75;;;18.50;99.90;17.70;101249.00;;;;5035342;28;20270;-69
2022/04/21 07:31:18;;;;;;;1.10;0.60;;;18.00;99.90;17.90;101249.00;;;;5051944;28;20194;-69
2022/04/21 07:33:44;;;;;;;0.82;0.77;;;17.90;99.90;19.60;101234.00;;;;5046696;28;20205;-69
2022/04/21 07:36:17;;;;;;;0.80;0.80;;;18.80;99.90;19.60;101219.00;;;;5036214;28;20171;-70
2022/04/21 07:38:52;;;;;;;2.47;1.33;;;19.20;99.90;19.50;101210.00;;;;5018814;28;20602;-70
2022/04/21 07:41:23;;;;;;;0.68;0.68;;;19.30;99.90;18.90;101213.00;;;;5018973;28;20637;-71
2022/04/21 07:43:56;;;;;;;0.80;0.73;;;18.80;99.90;18.90;101239.00;;;;5021226;28;20646;-71
2022/04/21 07:46:25;;;;;;;0.93;0.90;;;18.80;99.90;16.90;101243.00;;;;5053786;28;20586;-70
2022/04/21 07:53:12;;;;;;;0.73;0.73;;;18.50;99.90;19.00;101218.00;;;;5052996;28;20221;-69
2022/04/21 07:54:43;;;;;;;0.35;0.35;;;19.00;99.90;18.60;101236.00;;;;5053346;28;20247;-70
2022/04/21 07:57:20;;;;;;;1.10;1.10;;;18.60;99.90;18.60;101187.00;;;;5054868;28;20202;-70
2022/04/21 07:59:54;;;;;;;0.50;0.50;;;18.50;99.90;18.30;101218.00;;;;5054512;28;20301;-70
2022/04/21 08:02:25;;;;;;;0.50;0.50;;;18.50;99.90;18.40;101236.00;;;;5054415;28;20185;-70
2022/04/21 08:04:53;;;;;;;0.50;0.50;;;18.60;99.90;17.50;101232.00;;;;5053192;28;20638;-70
2022/04/21 08:07:28;;;;;;;0.20;0.20;;;18.10;99.90;19.10;101224.00;;;;5036522;28;20201;-71
2022/04/21 08:10:05;;;;;;;1.67;1.50;;;18.50;99.90;19.60;101205.00;;;;5054110;28;20193;-69
2022/04/21 08:12:51;;;;;;;0.68;0.68;;;19.30;99.90;19.20;101199.00;;;;5053571;28;20715;-69
2022/04/21 08:15:29;;;;;;;0.60;0.60;;;19.30;99.70;18.90;101218.00;;;;5036715;28;20656;-69
2022/04/21 08:18:07;;;;;;;0.20;0.20;;;19.00;99.90;20.10;101213.00;;;;5053590;28;20178;-69
2022/04/21 08:20:36;;;;;;;0.65;0.65;;;19.50;99.60;18.70;101178.00;;;;5054214;28;20159;-69
2022/04/21 08:23:09;;;;;;;0.98;0.80;;;19.10;99.30;19.80;101203.00;;;;5055953;28;20175;-70
2022/04/21 08:34:06;;;;;;;1.08;0.98;;;18.80;99.50;18.80;101202.00;;;;5053981;28;20220;-70
2022/04/21 08:36:40;;;;;;;1.38;1.27;;;18.80;99.30;19.00;101218.00;;;;5033915;28;20200;-70
2022/04/21 08:39:11;;;;;;;1.65;1.45;;;18.80;99.50;18.40;101217.00;;;;5050222;28;20666;-71
2022/04/21 08:41:56;;;;;;;0.82;0.82;;;18.60;99.40;20.10;101213.00;;;;5059093;28;20197;-71
2022/04/21 08:44:41;;;;;;;0.60;0.60;;;19.10;99.90;19.70;101213.00;;;;5053362;28;20600;-71
2022/04/21 08:47:22;;;;;;;1.15;1.05;;;19.60;99.20;19.90;101221.00;;;;5053379;28;20201;-69
2022/04/21 08:50:14;;;;;;;3.38;2.35;;;19.80;99.10;20.50;101201.00;;;;5054229;28;20505;-70
2022/04/21 08:52:48;;;;;;;0.30;0.30;;;20.10;98.80;20.70;101209.00;;;;5053442;28;20209;-70
2022/04/21 08:55:19;;;;;;;0.85;0.75;;;20.10;98.30;20.30;101209.00;;;;5054784;28;20174;-70
2022/04/21 08:57:49;;;;;;;0.63;0.57;;;20.00;98.30;18.80;101212.00;;;;5052740;28;20641;-71
2022/04/21 09:00:18;;;;;;;0.35;0.35;;;19.00;99.40;19.70;101174.00;;;;5051495;28;20315;-71
2022/04/21 09:02:48;;;;;;;3.30;1.60;;;19.40;99.20;20.20;101207.00;;;;5036098;28;20194;-71
2022/04/21 09:05:20;;;;;;;0.32;0.32;;;19.70;98.60;19.60;101208.00;;;;5052358;28;20225;-69
2022/04/21 09:07:59;;;;;;;3.13;0.80;;;19.60;98.70;19.90;101166.00;;;;5047214;28;20661;-70
2022/04/21 09:10:29;;;;;;;2.45;1.95;;;19.80;98.60;19.50;101190.00;;;;5052821;28;20202;-72
2022/04/21 09:12:58;;;;;;;1.35;0.85;;;19.60;98.40;19.00;101212.00;;;;5030720;28;20221;-70
2022/04/21 09:15:30;;;;;;;0.45;0.45;;;19.30;98.70;20.00;101179.00;;;;5067022;28;20643;-72
2022/04/21 09:18:10;;;;;;;0.30;0.30;;;19.60;99.00;19.00;101177.00;;;;5036270;28;20189;-71
2022/04/21 09:20:37;;;;;;;1.08;1.08;;;19.40;98.70;19.30;101182.00;;;;5054566;28;20221;-71
2022/04/21 09:23:16;;;;;;;1.13;0.93;;;19.40;98.70;19.50;101212.00;;;;5036192;28;20281;-71
2022/04/21 09:25:46;;;;;;;1.75;1.60;;;19.30;99.00;17.60;101217.00;;;;5052960;28;20642;-70
2022/04/21 09:28:32;;;;;;;0.47;0.47;;;18.70;98.70;18.00;101227.00;;;;5052802;28;20193;-70
2022/04/21 09:31:05;;;;;;;0.52;0.52;;;18.10;99.60;19.60;101215.00;;;;5036082;28;20181;-70
2022/04/21 09:34:05;;;;;;;1.00;0.93;;;18.90;99.40;20.20;101204.00;;;;5052440;28;20266;-78
2022/04/21 09:36:36;;;;;;;0.90;0.90;;;19.70;98.70;20.00;101201.00;;;;5035487;28;20530;-69
2022/04/21 09:39:15;;;;;;;0.80;0.80;;;19.60;98.10;18.60;101217.00;;;;5035767;28;20183;-70
2022/04/21 09:41:46;;;;;;;1.40;1.38;;;19.30;98.10;19.60;101207.00;;;;5035905;28;20195;-69
2022/04/21 09:47:00;;;;;;;1.50;0.93;;;19.60;98.20;19.40;101210.00;;;;5053024;28;20185;-69
2022/04/21 09:49:43;;;;;;;0.98;0.98;;;19.50;97.40;18.00;101209.00;;;;5053629;28;20637;-74
2022/04/21 09:52:31;;;;;;;0.70;0.70;;;18.60;98.10;18.60;101208.00;;;;5036228;28;20561;-71
2022/04/21 09:54:59;;;;;;;1.35;0.73;;;18.40;98.20;19.60;101186.00;;;;5052738;28;20679;-70
2022/04/21 09:57:34;;;;;;;1.52;1.42;;;19.10;98.20;18.10;101196.00;;;;5035862;28;20739;-70
2022/04/21 10:00:12;;;;;;;0.40;0.40;;;19.00;97.20;19.30;101180.00;;;;5052028;28;20271;-70
2022/04/21 10:02:49;;;;;;;0.73;0.73;;;18.90;98.00;18.80;101141.00;;;;5052212;28;20190;-70
2022/04/21 10:05:24;;;;;;;1.23;1.20;;;19.10;97.60;20.00;101140.00;;;;5052223;28;20642;-70
2022/04/21 10:08:08;;;;;;;0.65;0.65;;;19.30;98.00;20.40;101159.00;;;;5052756;28;20180;-70
2022/04/21 10:10:38;;;;;;;1.27;1.17;;;19.90;97.60;20.70;101160.00;;;;5035736;28;20659;-70
2022/04/21 10:13:11;;;;;;;2.78;1.20;;;20.40;97.80;21.20;101156.00;;;;5035269;28;20206;-70
2022/04/21 10:15:42;;;;;;;1.27;1.17;;;20.60;96.20;19.70;101159.00;;;;5035541;28;20597;-70
2022/04/21 10:18:20;;;;;;;0.30;0.30;;;20.30;95.20;19.40;101152.00;;;;5052167;28;20634;-71
2022/04/21 10:33:16;;;;;;;4.22;1.88;;;19.70;95.20;19.40;101118.00;;;;5177213;27;149411;-70
2022/04/21 10:35:52;;;;;;;1.92;1.73;;;19.70;95.00;18.90;101153.00;;;;5144616;27;20257;-71
2022/04/21 10:38:25;;;;;;;10.23;1.58;;;19.20;95.20;20.00;101140.00;;;;5149187;27;20190;-71
2022/04/21 10:40:55;;;;;;;0.90;0.88;;;19.60;95.30;20.50;101136.00;;;;5151142;27;20231;-71
2022/04/21 10:43:48;;;;;;;0.60;0.60;;;20.00;94.20;20.30;101141.00;;;;5152448;27;20185;-70
2022/04/21 10:46:29;;;;;;;3.95;2.67;;;20.00;94.60;19.70;101134.00;;;;5132253;27;20294;-71
2022/04/21 10:48:55;;;;;;;0.90;0.88;;;19.90;94.60;20.40;101131.00;;;;5113837;28;20547;-70
2022/04/21 10:57:39;;;;;;;0.30;0.30;;;20.00;93.00;19.80;101114.00;;;;5131062;28;20244;-70
2022/04/21 11:00:31;;;;;;;1.00;0.90;;;19.80;92.90;19.80;101081.00;;;;5129935;28;20171;-71
2022/04/21 11:03:09;;;;;;;2.53;1.40;;;19.90;92.40;19.30;101127.00;;;;5129759;28;20182;-70
2022/04/21 11:05:43;;;;;;;2.88;1.48;;;19.70;92.10;19.50;101094.00;;;;5129749;28;20531;-71
2022/04/21 11:08:21;;;;;;;0.65;0.65;;;19.60;92.30;19.20;101074.00;;;;5112745;28;20190;-71
2022/04/21 11:10:51;;;;;;;1.40;1.25;;;19.20;92.60;19.50;101057.00;;;;5129287;28;20231;-72
2022/04/21 11:13:19;;;;;;;1.50;1.13;;;19.40;92.30;20.40;101103.00;;;;5112874;28;20505;-71
2022/04/21 11:15:45;;;;;;;0.50;0.50;;;19.90;92.10;19.90;101110.00;;;;5129356;27;20635;-71
2022/04/21 11:18:27;;;;;;;0.90;0.90;;;20.00;92.20;20.40;101089.00;;;;5131012;27;20581;-71
2022/04/21 11:21:19;;;;;;;0.30;0.30;;;20.40;91.10;19.90;101085.00;;;;5112440;28;20202;-71
2022/04/21 11:23:45;;;;;;;1.38;1.38;;;19.90;91.70;20.70;101080.00;;;;5130893;27;20171;-71
2022/04/21 11:26:12;;;;;;;7.88;1.38;;;20.30;91.60;21.00;101046.00;;;;5144040;27;20535;-71
2022/04/21 11:28:46;;;;;;;1.38;1.27;;;20.70;91.30;19.70;101070.00;;;;5150241;27;20186;-70
2022/04/21 11:31:21;;;;;;;1.38;1.27;;;20.10;90.60;19.70;101040.00;;;;5132751;27;20676;-70
2022/04/21 11:33:47;;;;;;;1.10;0.60;;;19.70;91.00;19.60;101081.00;;;;5143179;27;20672;-70
2022/04/21 11:36:17;;;;;;;1.02;0.95;;;19.70;91.00;20.10;101032.00;;;;5138267;27;20647;-71
2022/04/21 11:38:53;;;;;;;1.08;0.82;;;19.90;90.70;20.60;101039.00;;;;5129325;28;20198;-71
2022/04/21 11:41:19;;;;;;;0.73;0.73;;;20.30;90.90;20.10;101069.00;;;;5130031;28;20175;-71
2022/04/21 11:43:50;;;;;;;1.55;0.70;;;20.30;90.50;19.50;101066.00;;;;5129446;27;20180;-71
2022/04/21 11:46:22;;;;;;;2.03;1.75;;;19.70;89.10;18.90;101076.00;;;;5116461;27;20183;-70
2022/04/21 11:49:00;;;;;;;1.25;1.15;;;19.30;90.40;19.20;101078.00;;;;5134109;27;20183;-71
2022/04/21 11:51:32;;;;;;;0.43;0.43;;;19.40;90.10;19.30;101061.00;;;;5133462;27;20221;-73
2022/04/21 11:54:09;;;;;;;1.70;1.60;;;19.40;89.10;19.50;101066.00;;;;5115721;27;20546;-75
2022/04/21 11:56:36;;;;;;;1.33;1.23;;;19.40;89.30;20.10;101020.00;;;;5116290;27;20182;-74
2022/04/21 11:59:10;;;;;;;0.75;0.73;;;19.80;88.80;19.60;101065.00;;;;5116457;27;20266;-74